Lake Junaluska, North Carolina
Current Conditions -  °F | °C
As of 8:54 PM on Saturday 25 Oct 2014 (Local Time) from KAVL Reporting Station
Clear Clear  
Wind Chill: 57°   Ceiling: Unl
Heat Index: 57°   Visibility: 10mi
Dew Point: 45°   Wind: 5mph
Humidity: 64%   Direction: 290°WNW
Pressure: 30.04"   Gusts: NA
Location:  35.53°N, 82.98°W
Report Text: KAVL 260054Z 29004KT 10SM CLR 14/07 A3004 RMK AO2 SLP163 T01390072
Loading
Personal Weather Stations






























Interactive Weather Map
Tropical Storm Tracking
New forecast layout! Learn more

10-Day Weather Forecast

Advertisements
Track Severe Weather on mobile